Broken Arrow, Oklahoma
Current Conditions -  °F | °C
As of 9:53 PM on Friday 31 Oct 2014 (Local Time) from KRVS Reporting Station
Clear Clear  
Wind Chill: 36°   Ceiling: Unl
Heat Index: 39°   Visibility: 10mi
Dew Point: 25°   Wind: 5mph
Humidity: 57%   Direction: 30°NNE
Pressure: 30.43"   Gusts: NA
Location:  36.05°N, 95.79°W
Report Text: KRVS 010253Z AUTO 03004KT 10SM CLR 04/M04 A3043 RMK AO2 SLP313 T00391039 52006
Loading
Personal Weather Stations






























Interactive Weather Map
Tropical Storm Tracking
New forecast layout! Learn more

10-Day Weather Forecast

Advertisements
Track Severe Weather on mobile